sensor_id;sensor_type;location;lat;lon;timestamp;P1;durP1;ratioP1;P2;durP2;ratioP2
74519;SDS011;63002;48.134;-1.948;2023-10-31T06:00:30;1.23;;;0.40;;
74519;SDS011;63002;48.134;-1.948;2023-10-31T06:02:56;1.23;;;0.30;;
74519;SDS011;63002;48.134;-1.948;2023-10-31T06:05:22;2.20;;;0.37;;
74519;SDS011;63002;48.134;-1.948;2023-10-31T06:07:47;1.80;;;0.30;;
74519;SDS011;63002;48.134;-1.948;2023-10-31T06:10:13;1.27;;;0.50;;
74519;SDS011;63002;48.134;-1.948;2023-10-31T06:12:39;1.37;;;0.50;;
74519;SDS011;63002;48.134;-1.948;2023-10-31T06:15:05;1.15;;;0.40;;
74519;SDS011;63002;48.134;-1.948;2023-10-31T06:17:31;2.17;;;0.60;;
74519;SDS011;63002;48.134;-1.948;2023-10-31T06:19:58;1.17;;;0.30;;
74519;SDS011;63002;48.134;-1.948;2023-10-31T06:22:24;1.15;;;0.40;;
74519;SDS011;63002;48.134;-1.948;2023-10-31T06:24:50;2.25;;;0.40;;
74519;SDS011;63002;48.134;-1.948;2023-10-31T06:27:15;1.52;;;0.43;;
74519;SDS011;63002;48.134;-1.948;2023-10-31T06:29:41;1.47;;;0.30;;
74519;SDS011;63002;48.134;-1.948;2023-10-31T06:32:07;1.00;;;0.20;;
74519;SDS011;63002;48.134;-1.948;2023-10-31T06:34:32;2.10;;;0.53;;
74519;SDS011;63002;48.134;-1.948;2023-10-31T06:36:58;0.82;;;0.30;;
74519;SDS011;63002;48.134;-1.948;2023-10-31T06:39:24;1.87;;;0.50;;
74519;SDS011;63002;48.134;-1.948;2023-10-31T06:41:49;1.58;;;0.38;;
74519;SDS011;63002;48.134;-1.948;2023-10-31T06:44:19;0.63;;;0.20;;
74519;SDS011;63002;48.134;-1.948;2023-10-31T06:46:45;1.67;;;0.50;;
74519;SDS011;63002;48.134;-1.948;2023-10-31T06:49:10;1.23;;;0.40;;
74519;SDS011;63002;48.134;-1.948;2023-10-31T06:51:36;1.75;;;0.50;;
74519;SDS011;63002;48.134;-1.948;2023-10-31T06:54:02;1.10;;;0.47;;
74519;SDS011;63002;48.134;-1.948;2023-10-31T06:56:27;1.30;;;0.50;;
74519;SDS011;63002;48.134;-1.948;2023-10-31T06:58:54;2.00;;;0.30;;
74519;SDS011;63002;48.134;-1.948;2023-10-31T07:01:20;2.40;;;0.60;;
74519;SDS011;63002;48.134;-1.948;2023-10-31T07:03:49;1.55;;;0.35;;
74519;SDS011;63002;48.134;-1.948;2023-10-31T07:06:14;1.00;;;0.30;;
74519;SDS011;63002;48.134;-1.948;2023-10-31T07:08:40;2.65;;;0.40;;
74519;SDS011;63002;48.134;-1.948;2023-10-31T07:11:06;0.80;;;0.20;;
74519;SDS011;63002;48.134;-1.948;2023-10-31T07:13:31;2.58;;;0.40;;
74519;SDS011;63002;48.134;-1.948;2023-10-31T07:15:57;1.15;;;0.40;;
74519;SDS011;63002;48.134;-1.948;2023-10-31T07:18:23;1.20;;;0.30;;
74519;SDS011;63002;48.134;-1.948;2023-10-31T07:20:48;1.60;;;0.38;;
74519;SDS011;63002;48.134;-1.948;2023-10-31T07:23:16;1.10;;;0.40;;
74519;SDS011;63002;48.134;-1.948;2023-10-31T07:25:42;1.48;;;0.47;;
74519;SDS011;63002;48.134;-1.948;2023-10-31T07:28:08;2.28;;;0.30;;
74519;SDS011;63002;48.134;-1.948;2023-10-31T07:30:34;2.00;;;0.40;;
74519;SDS011;63002;48.134;-1.948;2023-10-31T07:33:00;1.83;;;0.30;;
74519;SDS011;63002;48.134;-1.948;2023-10-31T07:35:25;2.03;;;0.30;;
74519;SDS011;63002;48.134;-1.948;2023-10-31T07:37:52;2.22;;;0.45;;
74519;SDS011;63002;48.134;-1.948;2023-10-31T07:40:18;2.03;;;0.30;;
74519;SDS011;63002;48.134;-1.948;2023-10-31T07:42:45;2.40;;;0.30;;
74519;SDS011;63002;48.134;-1.948;2023-10-31T07:45:10;1.10;;;0.20;;
74519;SDS011;63002;48.134;-1.948;2023-10-31T07:47:36;3.27;;;0.47;;
74519;SDS011;63002;48.134;-1.948;2023-10-31T07:50:02;2.42;;;0.57;;
74519;SDS011;63002;48.134;-1.948;2023-10-31T07:52:29;1.70;;;0.30;;
74519;SDS011;63002;48.134;-1.948;2023-10-31T07:54:54;3.57;;;0.50;;
74519;SDS011;63002;48.134;-1.948;2023-10-31T07:57:20;3.38;;;0.60;;
74519;SDS011;63002;48.134;-1.948;2023-10-31T07:59:46;1.33;;;0.40;;
74519;SDS011;63002;48.134;-1.948;2023-10-31T08:02:12;2.95;;;0.60;;
74519;SDS011;63002;48.134;-1.948;2023-10-31T08:04:38;1.63;;;0.40;;
74519;SDS011;63002;48.134;-1.948;2023-10-31T08:07:04;2.00;;;0.50;;
74519;SDS011;63002;48.134;-1.948;2023-10-31T08:09:29;3.85;;;0.30;;
74519;SDS011;63002;48.134;-1.948;2023-10-31T08:11:55;5.45;;;0.50;;
74519;SDS011;63002;48.134;-1.948;2023-10-31T08:14:21;3.83;;;0.50;;
74519;SDS011;63002;48.134;-1.948;2023-10-31T08:16:47;1.55;;;0.40;;
74519;SDS011;63002;48.134;-1.948;2023-10-31T08:19:13;3.00;;;0.70;;
74519;SDS011;63002;48.134;-1.948;2023-10-31T08:21:39;2.55;;;0.40;;
74519;SDS011;63002;48.134;-1.948;2023-10-31T08:24:05;1.85;;;0.38;;
74519;SDS011;63002;48.134;-1.948;2023-10-31T08:26:32;3.47;;;0.40;;
74519;SDS011;63002;48.134;-1.948;2023-10-31T08:29:00;4.00;;;0.50;;
74519;SDS011;63002;48.134;-1.948;2023-10-31T08:31:25;1.98;;;0.40;;
74519;SDS011;63002;48.134;-1.948;2023-10-31T08:33:51;4.13;;;0.70;;
74519;SDS011;63002;48.134;-1.948;2023-10-31T08:36:17;2.92;;;0.40;;
74519;SDS011;63002;48.134;-1.948;2023-10-31T08:38:42;5.77;;;0.70;;
74519;SDS011;63002;48.134;-1.948;2023-10-31T08:41:08;1.45;;;0.40;;
74519;SDS011;63002;48.134;-1.948;2023-10-31T08:43:34;4.27;;;0.60;;
74519;SDS011;63002;48.134;-1.948;2023-10-31T08:46:01;5.55;;;0.90;;
74519;SDS011;63002;48.134;-1.948;2023-10-31T08:48:27;4.18;;;0.70;;
74519;SDS011;63002;48.134;-1.948;2023-10-31T08:50:53;3.63;;;0.47;;
74519;SDS011;63002;48.134;-1.948;2023-10-31T08:53:18;4.43;;;0.40;;
74519;SDS011;63002;48.134;-1.948;2023-10-31T08:55:44;4.00;;;0.60;;
74519;SDS011;63002;48.134;-1.948;2023-10-31T08:58:13;5.13;;;0.70;;
74519;SDS011;63002;48.134;-1.948;2023-10-31T09:00:39;3.33;;;0.50;;
74519;SDS011;63002;48.134;-1.948;2023-10-31T09:03:06;5.00;;;0.63;;
74519;SDS011;63002;48.134;-1.948;2023-10-31T09:05:32;4.10;;;0.70;;
74519;SDS011;63002;48.134;-1.948;2023-10-31T09:07:58;4.00;;;0.63;;
74519;SDS011;63002;48.134;-1.948;2023-10-31T09:10:24;5.47;;;0.80;;
74519;SDS011;63002;48.134;-1.948;2023-10-31T09:12:50;6.97;;;1.17;;
74519;SDS011;63002;48.134;-1.948;2023-10-31T09:15:15;7.82;;;1.10;;
74519;SDS011;63002;48.134;-1.948;2023-10-31T09:17:41;9.57;;;0.95;;
74519;SDS011;63002;48.134;-1.948;2023-10-31T09:20:07;7.38;;;1.10;;
74519;SDS011;63002;48.134;-1.948;2023-10-31T09:22:34;5.70;;;1.00;;
74519;SDS011;63002;48.134;-1.948;2023-10-31T09:25:00;12.43;;;1.30;;
74519;SDS011;63002;48.134;-1.948;2023-10-31T09:27:27;7.05;;;1.20;;
74519;SDS011;63002;48.134;-1.948;2023-10-31T09:29:53;6.63;;;0.80;;
74519;SDS011;63002;48.134;-1.948;2023-10-31T09:32:18;8.83;;;1.07;;
74519;SDS011;63002;48.134;-1.948;2023-10-31T09:34:44;8.65;;;0.90;;
74519;SDS011;63002;48.134;-1.948;2023-10-31T09:37:10;7.43;;;1.10;;
74519;SDS011;63002;48.134;-1.948;2023-10-31T09:39:36;6.63;;;1.17;;
74519;SDS011;63002;48.134;-1.948;2023-10-31T09:42:01;7.27;;;1.07;;
74519;SDS011;63002;48.134;-1.948;2023-10-31T09:44:27;9.00;;;1.00;;
74519;SDS011;63002;48.134;-1.948;2023-10-31T09:46:53;5.78;;;0.85;;
74519;SDS011;63002;48.134;-1.948;2023-10-31T09:49:20;7.15;;;1.35;;
74519;SDS011;63002;48.134;-1.948;2023-10-31T09:51:46;8.48;;;1.20;;
74519;SDS011;63002;48.134;-1.948;2023-10-31T09:54:14;5.57;;;1.20;;
74519;SDS011;63002;48.134;-1.948;2023-10-31T09:56:41;7.55;;;0.82;;
74519;SDS011;63002;48.134;-1.948;2023-10-31T09:59:08;7.68;;;1.02;;
74519;SDS011;63002;48.134;-1.948;2023-10-31T10:01:34;5.73;;;0.90;;
74519;SDS011;63002;48.134;-1.948;2023-10-31T10:04:00;5.50;;;0.95;;
74519;SDS011;63002;48.134;-1.948;2023-10-31T10:06:27;5.95;;;1.05;;
74519;SDS011;63002;48.134;-1.948;2023-10-31T10:08:55;8.55;;;1.00;;
74519;SDS011;63002;48.134;-1.948;2023-10-31T10:11:21;4.83;;;0.60;;
74519;SDS011;63002;48.134;-1.948;2023-10-31T10:13:47;6.45;;;0.95;;
74519;SDS011;63002;48.134;-1.948;2023-10-31T10:16:14;7.45;;;1.08;;
74519;SDS011;63002;48.134;-1.948;2023-10-31T10:19:31;8.30;;;1.10;;
74519;SDS011;63002;48.134;-1.948;2023-10-31T10:21:51;6.50;;;1.08;;
74519;SDS011;63002;48.134;-1.948;2023-10-31T10:24:18;7.05;;;0.70;;
74519;SDS011;63002;48.134;-1.948;2023-10-31T10:26:45;7.35;;;0.93;;
74519;SDS011;63002;48.134;-1.948;2023-10-31T10:29:11;3.38;;;0.82;;
74519;SDS011;63002;48.134;-1.948;2023-10-31T10:31:37;6.35;;;0.80;;
74519;SDS011;63002;48.134;-1.948;2023-10-31T10:34:04;17.75;;;2.28;;
74519;SDS011;63002;48.134;-1.948;2023-10-31T10:36:31;10.85;;;1.80;;
74519;SDS011;63002;48.134;-1.948;2023-10-31T10:38:58;11.32;;;1.83;;
74519;SDS011;63002;48.134;-1.948;2023-10-31T10:41:25;16.73;;;2.30;;
74519;SDS011;63002;48.134;-1.948;2023-10-31T10:43:56;12.55;;;2.00;;
74519;SDS011;63002;48.134;-1.948;2023-10-31T10:46:28;9.98;;;2.00;;
74519;SDS011;63002;48.134;-1.948;2023-10-31T10:48:58;10.68;;;1.90;;
74519;SDS011;63002;48.134;-1.948;2023-10-31T10:57:13;10.43;;;1.38;;
74519;SDS011;63002;48.134;-1.948;2023-10-31T10:59:47;7.40;;;1.73;;
74519;SDS011;63002;48.134;-1.948;2023-10-31T11:02:18;9.75;;;1.70;;
74519;SDS011;63002;48.134;-1.948;2023-10-31T11:04:44;10.25;;;1.55;;
74519;SDS011;63002;48.134;-1.948;2023-10-31T11:07:10;8.98;;;1.35;;
74519;SDS011;63002;48.134;-1.948;2023-10-31T11:09:36;9.27;;;1.60;;
74519;SDS011;63002;48.134;-1.948;2023-10-31T11:12:03;8.88;;;1.40;;
74519;SDS011;63002;48.134;-1.948;2023-10-31T11:14:30;6.10;;;1.10;;
74519;SDS011;63002;48.134;-1.948;2023-10-31T11:16:58;8.20;;;1.10;;
74519;SDS011;63002;48.134;-1.948;2023-10-31T11:19:29;8.25;;;1.27;;
74519;SDS011;63002;48.134;-1.948;2023-10-31T11:21:57;5.72;;;1.27;;
74519;SDS011;63002;48.134;-1.948;2023-10-31T11:24:32;7.03;;;1.05;;
74519;SDS011;63002;48.134;-1.948;2023-10-31T11:27:02;4.85;;;1.02;;
74519;SDS011;63002;48.134;-1.948;2023-10-31T11:29:30;7.33;;;1.17;;
74519;SDS011;63002;48.134;-1.948;2023-10-31T11:31:57;4.88;;;0.88;;
74519;SDS011;63002;48.134;-1.948;2023-10-31T11:34:26;6.50;;;0.90;;
74519;SDS011;63002;48.134;-1.948;2023-10-31T11:36:52;10.13;;;1.05;;
74519;SDS011;63002;48.134;-1.948;2023-10-31T11:39:19;5.95;;;0.90;;
74519;SDS011;63002;48.134;-1.948;2023-10-31T11:41:50;9.40;;;1.27;;
74519;SDS011;63002;48.134;-1.948;2023-10-31T11:44:21;9.23;;;1.50;;
74519;SDS011;63002;48.134;-1.948;2023-10-31T11:46:50;7.40;;;1.15;;
74519;SDS011;63002;48.134;-1.948;2023-10-31T11:49:17;9.35;;;1.02;;
74519;SDS011;63002;48.134;-1.948;2023-10-31T11:52:13;30.33;;;2.00;;
74519;SDS011;63002;48.134;-1.948;2023-10-31T11:54:43;10.20;;;1.30;;
74519;SDS011;63002;48.134;-1.948;2023-10-31T11:57:09;10.73;;;1.23;;
74519;SDS011;63002;48.134;-1.948;2023-10-31T11:59:35;12.02;;;1.10;;
74519;SDS011;63002;48.134;-1.948;2023-10-31T12:02:14;6.97;;;0.80;;
74519;SDS011;63002;48.134;-1.948;2023-10-31T12:04:40;9.75;;;1.25;;
74519;SDS011;63002;48.134;-1.948;2023-10-31T12:07:06;11.20;;;1.00;;
74519;SDS011;63002;48.134;-1.948;2023-10-31T12:09:33;10.20;;;0.93;;
74519;SDS011;63002;48.134;-1.948;2023-10-31T12:12:10;5.55;;;0.80;;
74519;SDS011;63002;48.134;-1.948;2023-10-31T12:14:35;5.97;;;0.88;;
74519;SDS011;63002;48.134;-1.948;2023-10-31T12:17:04;10.70;;;0.85;;
74519;SDS011;63002;48.134;-1.948;2023-10-31T12:19:32;5.33;;;0.70;;
74519;SDS011;63002;48.134;-1.948;2023-10-31T12:21:58;5.30;;;1.00;;
74519;SDS011;63002;48.134;-1.948;2023-10-31T12:24:24;5.75;;;0.80;;
74519;SDS011;63002;48.134;-1.948;2023-10-31T12:26:49;7.17;;;1.13;;
74519;SDS011;63002;48.134;-1.948;2023-10-31T12:29:17;11.70;;;0.90;;
74519;SDS011;63002;48.134;-1.948;2023-10-31T12:31:48;4.97;;;0.80;;
74519;SDS011;63002;48.134;-1.948;2023-10-31T12:34:17;5.35;;;1.00;;
74519;SDS011;63002;48.134;-1.948;2023-10-31T12:36:45;3.42;;;0.77;;
74519;SDS011;63002;48.134;-1.948;2023-10-31T12:39:12;6.90;;;0.82;;
74519;SDS011;63002;48.134;-1.948;2023-10-31T12:41:40;5.40;;;0.70;;
74519;SDS011;63002;48.134;-1.948;2023-10-31T12:44:06;8.00;;;1.00;;
74519;SDS011;63002;48.134;-1.948;2023-10-31T12:46:38;6.22;;;0.90;;
74519;SDS011;63002;48.134;-1.948;2023-10-31T12:49:08;4.97;;;0.88;;
74519;SDS011;63002;48.134;-1.948;2023-10-31T12:51:37;6.90;;;0.80;;
74519;SDS011;63002;48.134;-1.948;2023-10-31T12:54:03;5.32;;;0.70;;
74519;SDS011;63002;48.134;-1.948;2023-10-31T12:57:02;5.07;;;1.10;;
74519;SDS011;63002;48.134;-1.948;2023-10-31T12:59:24;5.32;;;0.95;;
74519;SDS011;63002;48.134;-1.948;2023-10-31T13:01:49;5.55;;;1.02;;
74519;SDS011;63002;48.134;-1.948;2023-10-31T13:04:24;6.93;;;0.93;;
74519;SDS011;63002;48.134;-1.948;2023-10-31T13:06:58;8.55;;;1.20;;
74519;SDS011;63002;48.134;-1.948;2023-10-31T13:09:31;5.20;;;0.88;;
74519;SDS011;63002;48.134;-1.948;2023-10-31T13:12:00;7.17;;;1.10;;
74519;SDS011;63002;48.134;-1.948;2023-10-31T13:14:30;9.25;;;1.25;;
74519;SDS011;63002;48.134;-1.948;2023-10-31T13:16:56;6.05;;;0.90;;
74519;SDS011;63002;48.134;-1.948;2023-10-31T13:19:22;7.10;;;0.88;;
74519;SDS011;63002;48.134;-1.948;2023-10-31T13:21:48;7.13;;;0.83;;
74519;SDS011;63002;48.134;-1.948;2023-10-31T13:24:14;6.53;;;1.13;;
74519;SDS011;63002;48.134;-1.948;2023-10-31T13:26:40;7.78;;;1.15;;
74519;SDS011;63002;48.134;-1.948;2023-10-31T13:29:06;7.00;;;0.80;;
74519;SDS011;63002;48.134;-1.948;2023-10-31T13:31:32;4.20;;;0.82;;
74519;SDS011;63002;48.134;-1.948;2023-10-31T13:33:58;10.97;;;1.20;;
74519;SDS011;63002;48.134;-1.948;2023-10-31T13:36:23;8.85;;;0.85;;
74519;SDS011;63002;48.134;-1.948;2023-10-31T13:38:49;7.87;;;0.90;;
74519;SDS011;63002;48.134;-1.948;2023-10-31T13:41:15;8.45;;;0.82;;
74519;SDS011;63002;48.134;-1.948;2023-10-31T13:43:40;6.87;;;0.70;;
74519;SDS011;63002;48.134;-1.948;2023-10-31T13:46:06;4.82;;;0.90;;
74519;SDS011;63002;48.134;-1.948;2023-10-31T13:48:32;5.37;;;1.00;;
74519;SDS011;63002;48.134;-1.948;2023-10-31T13:50:58;7.15;;;1.05;;
74519;SDS011;63002;48.134;-1.948;2023-10-31T13:53:23;8.00;;;1.10;;
74519;SDS011;63002;48.134;-1.948;2023-10-31T13:55:49;7.97;;;1.02;;
74519;SDS011;63002;48.134;-1.948;2023-10-31T13:58:15;6.97;;;0.80;;
74519;SDS011;63002;48.134;-1.948;2023-10-31T14:00:43;4.85;;;0.63;;
74519;SDS011;63002;48.134;-1.948;2023-10-31T14:03:10;6.30;;;1.10;;
74519;SDS011;63002;48.134;-1.948;2023-10-31T14:05:36;5.30;;;0.57;;
74519;SDS011;63002;48.134;-1.948;2023-10-31T14:08:02;5.25;;;0.82;;
74519;SDS011;63002;48.134;-1.948;2023-10-31T14:10:28;4.72;;;0.70;;
74519;SDS011;63002;48.134;-1.948;2023-10-31T14:12:56;5.10;;;0.82;;
74519;SDS011;63002;48.134;-1.948;2023-10-31T14:15:22;4.68;;;0.73;;
74519;SDS011;63002;48.134;-1.948;2023-10-31T14:17:48;3.70;;;0.80;;
74519;SDS011;63002;48.134;-1.948;2023-10-31T14:20:15;9.45;;;0.80;;
74519;SDS011;63002;48.134;-1.948;2023-10-31T14:22:46;7.60;;;1.00;;
74519;SDS011;63002;48.134;-1.948;2023-10-31T14:25:12;5.70;;;0.65;;
74519;SDS011;63002;48.134;-1.948;2023-10-31T14:27:38;9.25;;;0.63;;
74519;SDS011;63002;48.134;-1.948;2023-10-31T14:30:04;11.40;;;0.80;;
74519;SDS011;63002;48.134;-1.948;2023-10-31T14:32:30;7.65;;;0.70;;
74519;SDS011;63002;48.134;-1.948;2023-10-31T14:34:56;6.35;;;0.85;;
74519;SDS011;63002;48.134;-1.948;2023-10-31T14:37:22;3.93;;;0.67;;
74519;SDS011;63002;48.134;-1.948;2023-10-31T14:39:47;4.67;;;0.80;;
74519;SDS011;63002;48.134;-1.948;2023-10-31T14:42:13;7.40;;;0.80;;
74519;SDS011;63002;48.134;-1.948;2023-10-31T14:44:39;7.60;;;0.90;;
74519;SDS011;63002;48.134;-1.948;2023-10-31T14:47:04;6.03;;;0.80;;
74519;SDS011;63002;48.134;-1.948;2023-10-31T14:49:30;9.00;;;0.70;;
74519;SDS011;63002;48.134;-1.948;2023-10-31T14:51:56;10.85;;;1.58;;
74519;SDS011;63002;48.134;-1.948;2023-10-31T14:54:22;8.97;;;1.10;;
74519;SDS011;63002;48.134;-1.948;2023-10-31T14:56:47;7.20;;;1.50;;
74519;SDS011;63002;48.134;-1.948;2023-10-31T14:59:13;8.40;;;1.33;;
74519;SDS011;63002;48.134;-1.948;2023-10-31T15:01:39;12.23;;;1.33;;
74519;SDS011;63002;48.134;-1.948;2023-10-31T15:04:05;7.47;;;1.17;;
74519;SDS011;63002;48.134;-1.948;2023-10-31T15:06:31;5.40;;;0.93;;
74519;SDS011;63002;48.134;-1.948;2023-10-31T15:08:56;11.82;;;1.52;;
74519;SDS011;63002;48.134;-1.948;2023-10-31T15:11:22;7.20;;;1.40;;
74519;SDS011;63002;48.134;-1.948;2023-10-31T15:13:48;10.63;;;1.73;;
74519;SDS011;63002;48.134;-1.948;2023-10-31T15:16:13;9.70;;;1.27;;
74519;SDS011;63002;48.134;-1.948;2023-10-31T15:18:39;8.70;;;1.45;;
74519;SDS011;63002;48.134;-1.948;2023-10-31T15:21:05;7.93;;;1.37;;
74519;SDS011;63002;48.134;-1.948;2023-10-31T15:23:31;9.90;;;1.50;;
74519;SDS011;63002;48.134;-1.948;2023-10-31T15:25:57;9.43;;;1.27;;
74519;SDS011;63002;48.134;-1.948;2023-10-31T15:28:23;9.63;;;1.38;;
74519;SDS011;63002;48.134;-1.948;2023-10-31T15:30:52;10.55;;;1.38;;
74519;SDS011;63002;48.134;-1.948;2023-10-31T15:33:17;8.27;;;1.27;;
74519;SDS011;63002;48.134;-1.948;2023-10-31T15:35:43;8.65;;;1.35;;
74519;SDS011;63002;48.134;-1.948;2023-10-31T15:38:09;10.50;;;1.07;;
74519;SDS011;63002;48.134;-1.948;2023-10-31T15:40:35;9.07;;;1.27;;
74519;SDS011;63002;48.134;-1.948;2023-10-31T15:43:00;8.10;;;1.00;;
74519;SDS011;63002;48.134;-1.948;2023-10-31T15:45:26;6.47;;;1.40;;
74519;SDS011;63002;48.134;-1.948;2023-10-31T15:47:52;8.87;;;1.30;;
74519;SDS011;63002;48.134;-1.948;2023-10-31T15:50:17;7.07;;;1.15;;
74519;SDS011;63002;48.134;-1.948;2023-10-31T15:52:44;11.80;;;1.07;;
74519;SDS011;63002;48.134;-1.948;2023-10-31T15:55:11;10.93;;;1.40;;
74519;SDS011;63002;48.134;-1.948;2023-10-31T15:57:37;8.93;;;1.40;;
74519;SDS011;63002;48.134;-1.948;2023-10-31T16:00:06;11.13;;;1.23;;
74519;SDS011;63002;48.134;-1.948;2023-10-31T16:02:33;9.30;;;1.40;;
74519;SDS011;63002;48.134;-1.948;2023-10-31T16:04:59;11.57;;;1.53;;
74519;SDS011;63002;48.134;-1.948;2023-10-31T16:07:25;8.35;;;1.23;;
74519;SDS011;63002;48.134;-1.948;2023-10-31T16:09:51;9.98;;;1.10;;
74519;SDS011;63002;48.134;-1.948;2023-10-31T16:12:17;8.10;;;1.73;;
74519;SDS011;63002;48.134;-1.948;2023-10-31T16:14:48;18.65;;;1.95;;
74519;SDS011;63002;48.134;-1.948;2023-10-31T16:17:14;11.80;;;1.98;;
74519;SDS011;63002;48.134;-1.948;2023-10-31T16:19:40;13.17;;;2.47;;
74519;SDS011;63002;48.134;-1.948;2023-10-31T16:22:06;10.88;;;1.30;;
74519;SDS011;63002;48.134;-1.948;2023-10-31T16:24:32;13.75;;;2.22;;
74519;SDS011;63002;48.134;-1.948;2023-10-31T16:26:57;16.63;;;2.47;;
74519;SDS011;63002;48.134;-1.948;2023-10-31T16:29:23;13.57;;;2.17;;
74519;SDS011;63002;48.134;-1.948;2023-10-31T16:31:49;19.48;;;3.05;;
74519;SDS011;63002;48.134;-1.948;2023-10-31T16:34:15;12.52;;;1.60;;
74519;SDS011;63002;48.134;-1.948;2023-10-31T16:36:42;17.47;;;1.80;;
74519;SDS011;63002;48.134;-1.948;2023-10-31T16:39:09;17.55;;;2.83;;
74519;SDS011;63002;48.134;-1.948;2023-10-31T16:41:35;13.77;;;2.45;;
74519;SDS011;63002;48.134;-1.948;2023-10-31T16:44:01;18.52;;;3.05;;
74519;SDS011;63002;48.134;-1.948;2023-10-31T16:46:27;14.30;;;2.53;;
74519;SDS011;63002;48.134;-1.948;2023-10-31T16:48:53;21.20;;;3.00;;
74519;SDS011;63002;48.134;-1.948;2023-10-31T16:51:19;11.57;;;2.70;;
74519;SDS011;63002;48.134;-1.948;2023-10-31T16:53:46;15.57;;;2.72;;
74519;SDS011;63002;48.134;-1.948;2023-10-31T16:56:13;13.88;;;2.47;;
74519;SDS011;63002;48.134;-1.948;2023-10-31T16:58:39;12.63;;;2.70;;
74519;SDS011;63002;48.134;-1.948;2023-10-31T17:01:05;14.70;;;2.10;;
74519;SDS011;63002;48.134;-1.948;2023-10-31T17:03:31;14.48;;;2.05;;
74519;SDS011;63002;48.134;-1.948;2023-10-31T17:05:57;13.98;;;2.35;;
74519;SDS011;63002;48.134;-1.948;2023-10-31T17:08:23;20.73;;;2.87;;
74519;SDS011;63002;48.134;-1.948;2023-10-31T17:10:48;16.25;;;2.28;;
74519;SDS011;63002;48.134;-1.948;2023-10-31T17:13:14;16.80;;;2.10;;
74519;SDS011;63002;48.134;-1.948;2023-10-31T17:15:40;17.55;;;2.22;;
74519;SDS011;63002;48.134;-1.948;2023-10-31T17:18:06;11.33;;;2.10;;
74519;SDS011;63002;48.134;-1.948;2023-10-31T17:20:32;14.80;;;1.80;;
74519;SDS011;63002;48.134;-1.948;2023-10-31T17:22:58;13.20;;;1.88;;
74519;SDS011;63002;48.134;-1.948;2023-10-31T17:25:24;18.58;;;2.35;;
74519;SDS011;63002;48.134;-1.948;2023-10-31T17:27:50;12.00;;;1.90;;
74519;SDS011;63002;48.134;-1.948;2023-10-31T17:30:16;16.53;;;1.70;;
74519;SDS011;63002;48.134;-1.948;2023-10-31T17:32:42;18.15;;;2.35;;
74519;SDS011;63002;48.134;-1.948;2023-10-31T17:35:11;13.75;;;2.17;;
74519;SDS011;63002;48.134;-1.948;2023-10-31T17:37:37;14.02;;;2.65;;
74519;SDS011;63002;48.134;-1.948;2023-10-31T17:40:03;10.82;;;1.70;;
74519;SDS011;63002;48.134;-1.948;2023-10-31T17:42:29;15.30;;;1.52;;
74519;SDS011;63002;48.134;-1.948;2023-10-31T17:44:58;14.38;;;2.10;;
74519;SDS011;63002;48.134;-1.948;2023-10-31T17:47:24;19.30;;;1.70;;
74519;SDS011;63002;48.134;-1.948;2023-10-31T17:49:49;12.63;;;2.00;;
74519;SDS011;63002;48.134;-1.948;2023-10-31T17:52:15;14.30;;;1.95;;
74519;SDS011;63002;48.134;-1.948;2023-10-31T17:54:41;11.53;;;1.63;;
74519;SDS011;63002;48.134;-1.948;2023-10-31T17:57:07;11.68;;;1.70;;
74519;SDS011;63002;48.134;-1.948;2023-10-31T17:59:33;10.87;;;1.60;;
74519;SDS011;63002;48.134;-1.948;2023-10-31T18:01:59;15.30;;;2.30;;
74519;SDS011;63002;48.134;-1.948;2023-10-31T18:04:25;12.07;;;1.70;;
74519;SDS011;63002;48.134;-1.948;2023-10-31T18:06:51;14.32;;;2.13;;
74519;SDS011;63002;48.134;-1.948;2023-10-31T18:09:17;11.30;;;1.77;;
74519;SDS011;63002;48.134;-1.948;2023-10-31T18:11:43;9.02;;;1.60;;
74519;SDS011;63002;48.134;-1.948;2023-10-31T18:14:09;14.00;;;2.10;;
74519;SDS011;63002;48.134;-1.948;2023-10-31T18:16:35;14.32;;;2.38;;
74519;SDS011;63002;48.134;-1.948;2023-10-31T18:19:01;9.77;;;1.48;;
74519;SDS011;63002;48.134;-1.948;2023-10-31T18:21:27;13.15;;;2.88;;
74519;SDS011;63002;48.134;-1.948;2023-10-31T18:23:54;15.55;;;2.53;;
74519;SDS011;63002;48.134;-1.948;2023-10-31T18:26:20;11.00;;;2.13;;
74519;SDS011;63002;48.134;-1.948;2023-10-31T18:28:46;12.68;;;2.10;;
74519;SDS011;63002;48.134;-1.948;2023-10-31T18:31:12;18.00;;;2.27;;
74519;SDS011;63002;48.134;-1.948;2023-10-31T18:33:38;11.82;;;2.03;;
74519;SDS011;63002;48.134;-1.948;2023-10-31T18:36:04;11.70;;;2.13;;
74519;SDS011;63002;48.134;-1.948;2023-10-31T18:38:30;10.25;;;1.92;;
74519;SDS011;63002;48.134;-1.948;2023-10-31T18:40:56;10.17;;;1.63;;
74519;SDS011;63002;48.134;-1.948;2023-10-31T18:43:22;10.88;;;1.55;;
74519;SDS011;63002;48.134;-1.948;2023-10-31T18:45:48;10.18;;;1.60;;
74519;SDS011;63002;48.134;-1.948;2023-10-31T18:48:14;12.50;;;1.83;;
74519;SDS011;63002;48.134;-1.948;2023-10-31T18:50:40;8.90;;;1.58;;
74519;SDS011;63002;48.134;-1.948;2023-10-31T18:53:06;10.83;;;2.00;;
74519;SDS011;63002;48.134;-1.948;2023-10-31T18:55:32;12.38;;;1.70;;
74519;SDS011;63002;48.134;-1.948;2023-10-31T18:57:58;14.23;;;1.63;;
74519;SDS011;63002;48.134;-1.948;2023-10-31T19:00:23;8.80;;;1.53;;
74519;SDS011;63002;48.134;-1.948;2023-10-31T19:02:49;12.35;;;1.38;;
74519;SDS011;63002;48.134;-1.948;2023-10-31T19:05:15;11.03;;;1.80;;
74519;SDS011;63002;48.134;-1.948;2023-10-31T19:07:41;12.82;;;2.17;;
74519;SDS011;63002;48.134;-1.948;2023-10-31T19:10:07;12.73;;;1.90;;
74519;SDS011;63002;48.134;-1.948;2023-10-31T19:12:34;8.77;;;1.58;;
74519;SDS011;63002;48.134;-1.948;2023-10-31T19:15:01;8.68;;;1.73;;
74519;SDS011;63002;48.134;-1.948;2023-10-31T19:17:27;12.10;;;1.42;;
74519;SDS011;63002;48.134;-1.948;2023-10-31T19:19:53;9.97;;;1.30;;
74519;SDS011;63002;48.134;-1.948;2023-10-31T19:22:18;11.52;;;1.70;;
74519;SDS011;63002;48.134;-1.948;2023-10-31T19:24:44;11.23;;;1.90;;
74519;SDS011;63002;48.134;-1.948;2023-10-31T19:27:13;8.40;;;1.30;;
74519;SDS011;63002;48.134;-1.948;2023-10-31T19:29:39;8.07;;;1.33;;
74519;SDS011;63002;48.134;-1.948;2023-10-31T19:32:05;8.97;;;1.53;;
74519;SDS011;63002;48.134;-1.948;2023-10-31T19:34:31;11.02;;;1.67;;
74519;SDS011;63002;48.134;-1.948;2023-10-31T19:36:56;8.27;;;1.20;;
74519;SDS011;63002;48.134;-1.948;2023-10-31T19:39:22;8.57;;;1.40;;
74519;SDS011;63002;48.134;-1.948;2023-10-31T19:41:53;10.07;;;1.70;;
74519;SDS011;63002;48.134;-1.948;2023-10-31T19:44:19;7.70;;;1.30;;
74519;SDS011;63002;48.134;-1.948;2023-10-31T19:46:45;7.93;;;1.20;;
74519;SDS011;63002;48.134;-1.948;2023-10-31T19:49:14;8.23;;;1.38;;
74519;SDS011;63002;48.134;-1.948;2023-10-31T19:51:40;8.35;;;1.45;;
74519;SDS011;63002;48.134;-1.948;2023-10-31T19:54:07;12.88;;;1.80;;
74519;SDS011;63002;48.134;-1.948;2023-10-31T19:56:33;6.87;;;1.17;;
74519;SDS011;63002;48.134;-1.948;2023-10-31T19:58:59;7.43;;;1.10;;
74519;SDS011;63002;48.134;-1.948;2023-10-31T20:01:25;9.80;;;2.00;;
74519;SDS011;63002;48.134;-1.948;2023-10-31T20:03:53;8.75;;;1.50;;
74519;SDS011;63002;48.134;-1.948;2023-10-31T20:06:19;8.17;;;1.30;;
74519;SDS011;63002;48.134;-1.948;2023-10-31T20:08:45;6.63;;;1.25;;
74519;SDS011;63002;48.134;-1.948;2023-10-31T20:11:11;8.95;;;1.38;;
74519;SDS011;63002;48.134;-1.948;2023-10-31T20:13:38;7.55;;;1.20;;
74519;SDS011;63002;48.134;-1.948;2023-10-31T20:16:04;7.28;;;1.00;;
74519;SDS011;63002;48.134;-1.948;2023-10-31T20:18:31;7.60;;;1.02;;
74519;SDS011;63002;48.134;-1.948;2023-10-31T20:20:59;8.25;;;1.20;;
74519;SDS011;63002;48.134;-1.948;2023-10-31T20:23:25;6.95;;;1.30;;
74519;SDS011;63002;48.134;-1.948;2023-10-31T20:25:51;12.02;;;1.13;;
74519;SDS011;63002;48.134;-1.948;2023-10-31T20:28:17;6.03;;;1.00;;
74519;SDS011;63002;48.134;-1.948;2023-10-31T20:30:43;5.65;;;1.10;;
74519;SDS011;63002;48.134;-1.948;2023-10-31T20:33:09;9.15;;;1.25;;